sensor_id;sensor_type;location;lat;lon;timestamp;temperature;humidity
20481;DHT22;10399;50.754;3.366;2023-08-06T00:01:34;17.20;99.90
20481;DHT22;10399;50.754;3.366;2023-08-06T00:04:01;17.00;99.90
20481;DHT22;10399;50.754;3.366;2023-08-06T00:06:29;17.10;99.90
20481;DHT22;10399;50.754;3.366;2023-08-06T00:08:56;17.10;99.90
20481;DHT22;10399;50.754;3.366;2023-08-06T00:11:23;17.10;99.90
20481;DHT22;10399;50.754;3.366;2023-08-06T00:13:50;17.20;99.90
20481;DHT22;10399;50.754;3.366;2023-08-06T00:16:17;17.20;99.90
20481;DHT22;10399;50.754;3.366;2023-08-06T00:18:45;17.10;99.90
20481;DHT22;10399;50.754;3.366;2023-08-06T00:21:12;17.20;99.90
20481;DHT22;10399;50.754;3.366;2023-08-06T00:23:40;17.20;99.90
20481;DHT22;10399;50.754;3.366;2023-08-06T00:26:08;17.10;99.90
20481;DHT22;10399;50.754;3.366;2023-08-06T00:28:35;17.00;99.90
20481;DHT22;10399;50.754;3.366;2023-08-06T00:31:02;17.00;99.90
20481;DHT22;10399;50.754;3.366;2023-08-06T00:33:29;17.00;99.90
20481;DHT22;10399;50.754;3.366;2023-08-06T00:35:57;16.90;99.90
20481;DHT22;10399;50.754;3.366;2023-08-06T00:38:24;17.00;99.90
20481;DHT22;10399;50.754;3.366;2023-08-06T00:40:51;17.10;99.90
20481;DHT22;10399;50.754;3.366;2023-08-06T00:43:20;16.90;99.90
20481;DHT22;10399;50.754;3.366;2023-08-06T00:45:47;16.90;99.90
20481;DHT22;10399;50.754;3.366;2023-08-06T00:48:14;16.70;99.90
20481;DHT22;10399;50.754;3.366;2023-08-06T00:50:42;16.70;99.90
20481;DHT22;10399;50.754;3.366;2023-08-06T00:53:09;16.80;99.90
20481;DHT22;10399;50.754;3.366;2023-08-06T00:55:37;16.80;99.90
20481;DHT22;10399;50.754;3.366;2023-08-06T00:58:05;16.80;99.90
20481;DHT22;10399;50.754;3.366;2023-08-06T01:00:32;16.90;99.90
20481;DHT22;10399;50.754;3.366;2023-08-06T01:03:00;16.90;99.90
20481;DHT22;10399;50.754;3.366;2023-08-06T01:05:27;16.90;99.90
20481;DHT22;10399;50.754;3.366;2023-08-06T01:08:39;16.80;99.90
20481;DHT22;10399;50.754;3.366;2023-08-06T01:11:20;16.80;99.90
20481;DHT22;10399;50.754;3.366;2023-08-06T01:13:54;16.80;99.90
20481;DHT22;10399;50.754;3.366;2023-08-06T01:16:25;16.70;99.90
20481;DHT22;10399;50.754;3.366;2023-08-06T01:18:53;16.70;99.90
20481;DHT22;10399;50.754;3.366;2023-08-06T01:21:21;16.80;99.90
20481;DHT22;10399;50.754;3.366;2023-08-06T01:23:48;16.70;99.90
20481;DHT22;10399;50.754;3.366;2023-08-06T01:26:26;16.70;99.90
20481;DHT22;10399;50.754;3.366;2023-08-06T01:31:40;16.80;99.90
20481;DHT22;10399;50.754;3.366;2023-08-06T01:34:13;16.80;99.90
20481;DHT22;10399;50.754;3.366;2023-08-06T01:36:45;17.00;99.90
20481;DHT22;10399;50.754;3.366;2023-08-06T01:39:12;17.00;99.90
20481;DHT22;10399;50.754;3.366;2023-08-06T01:41:40;17.00;99.90
20481;DHT22;10399;50.754;3.366;2023-08-06T01:44:07;17.00;99.90
20481;DHT22;10399;50.754;3.366;2023-08-06T01:46:34;17.00;99.90
20481;DHT22;10399;50.754;3.366;2023-08-06T01:49:01;17.10;99.90
20481;DHT22;10399;50.754;3.366;2023-08-06T01:51:29;17.10;99.90
20481;DHT22;10399;50.754;3.366;2023-08-06T01:53:56;17.10;99.90
20481;DHT22;10399;50.754;3.366;2023-08-06T01:56:23;17.10;99.90
20481;DHT22;10399;50.754;3.366;2023-08-06T01:58:51;17.10;99.90
20481;DHT22;10399;50.754;3.366;2023-08-06T02:01:18;17.20;99.90
20481;DHT22;10399;50.754;3.366;2023-08-06T02:03:45;17.30;99.90
20481;DHT22;10399;50.754;3.366;2023-08-06T02:06:13;17.20;99.90
20481;DHT22;10399;50.754;3.366;2023-08-06T02:08:40;17.20;99.90
20481;DHT22;10399;50.754;3.366;2023-08-06T02:11:07;17.30;99.90
20481;DHT22;10399;50.754;3.366;2023-08-06T02:13:34;17.30;99.90
20481;DHT22;10399;50.754;3.366;2023-08-06T02:16:01;17.30;99.90
20481;DHT22;10399;50.754;3.366;2023-08-06T02:18:28;17.20;99.90
20481;DHT22;10399;50.754;3.366;2023-08-06T02:20:57;17.00;99.90
20481;DHT22;10399;50.754;3.366;2023-08-06T02:23:25;17.00;99.90
20481;DHT22;10399;50.754;3.366;2023-08-06T02:26:03;16.90;99.90
20481;DHT22;10399;50.754;3.366;2023-08-06T02:28:31;16.80;99.90
20481;DHT22;10399;50.754;3.366;2023-08-06T02:30:59;16.80;99.90
20481;DHT22;10399;50.754;3.366;2023-08-06T02:33:28;16.70;99.90
20481;DHT22;10399;50.754;3.366;2023-08-06T02:36:03;16.80;99.90
20481;DHT22;10399;50.754;3.366;2023-08-06T02:38:34;16.80;99.90
20481;DHT22;10399;50.754;3.366;2023-08-06T02:41:04;16.70;99.90
20481;DHT22;10399;50.754;3.366;2023-08-06T02:43:31;16.60;99.90
20481;DHT22;10399;50.754;3.366;2023-08-06T02:46:00;16.60;99.90
20481;DHT22;10399;50.754;3.366;2023-08-06T02:48:27;16.70;99.90
20481;DHT22;10399;50.754;3.366;2023-08-06T02:50:59;16.70;99.90
20481;DHT22;10399;50.754;3.366;2023-08-06T02:53:26;16.50;99.90
20481;DHT22;10399;50.754;3.366;2023-08-06T02:55:53;16.60;99.90
20481;DHT22;10399;50.754;3.366;2023-08-06T02:58:22;16.70;99.90
20481;DHT22;10399;50.754;3.366;2023-08-06T03:01:03;16.70;99.90
20481;DHT22;10399;50.754;3.366;2023-08-06T03:03:31;16.70;99.90
20481;DHT22;10399;50.754;3.366;2023-08-06T03:05:59;16.60;99.90
20481;DHT22;10399;50.754;3.366;2023-08-06T03:08:28;16.60;99.90
20481;DHT22;10399;50.754;3.366;2023-08-06T03:10:55;16.60;99.90
20481;DHT22;10399;50.754;3.366;2023-08-06T03:13:22;16.70;99.90
20481;DHT22;10399;50.754;3.366;2023-08-06T03:16:07;16.60;99.90
20481;DHT22;10399;50.754;3.366;2023-08-06T03:18:34;16.60;99.90
20481;DHT22;10399;50.754;3.366;2023-08-06T03:21:01;16.60;99.90
20481;DHT22;10399;50.754;3.366;2023-08-06T03:23:29;16.70;99.90
20481;DHT22;10399;50.754;3.366;2023-08-06T03:26:00;16.80;99.90
20481;DHT22;10399;50.754;3.366;2023-08-06T03:28:28;16.70;99.90
20481;DHT22;10399;50.754;3.366;2023-08-06T03:31:04;16.60;99.90
20481;DHT22;10399;50.754;3.366;2023-08-06T03:33:32;16.70;99.90
20481;DHT22;10399;50.754;3.366;2023-08-06T03:35:59;16.70;99.90
20481;DHT22;10399;50.754;3.366;2023-08-06T03:38:27;16.70;99.90
20481;DHT22;10399;50.754;3.366;2023-08-06T03:40:57;16.70;99.90
20481;DHT22;10399;50.754;3.366;2023-08-06T03:43:25;16.70;99.90
20481;DHT22;10399;50.754;3.366;2023-08-06T03:45:52;16.70;99.90
20481;DHT22;10399;50.754;3.366;2023-08-06T03:48:19;16.80;99.90
20481;DHT22;10399;50.754;3.366;2023-08-06T03:50:47;16.70;99.90
20481;DHT22;10399;50.754;3.366;2023-08-06T03:53:14;16.70;99.90
20481;DHT22;10399;50.754;3.366;2023-08-06T03:55:41;16.80;99.90
20481;DHT22;10399;50.754;3.366;2023-08-06T03:58:08;16.80;99.90
20481;DHT22;10399;50.754;3.366;2023-08-06T04:00:36;16.80;99.90
20481;DHT22;10399;50.754;3.366;2023-08-06T04:03:03;16.80;99.90
20481;DHT22;10399;50.754;3.366;2023-08-06T04:05:32;16.90;99.90
20481;DHT22;10399;50.754;3.366;2023-08-06T04:07:59;16.80;99.90
20481;DHT22;10399;50.754;3.366;2023-08-06T04:10:27;16.80;99.90
20481;DHT22;10399;50.754;3.366;2023-08-06T04:12:54;16.90;99.90
20481;DHT22;10399;50.754;3.366;2023-08-06T04:15:22;16.80;99.90
20481;DHT22;10399;50.754;3.366;2023-08-06T04:17:49;16.70;99.90
20481;DHT22;10399;50.754;3.366;2023-08-06T04:20:17;16.80;99.90
20481;DHT22;10399;50.754;3.366;2023-08-06T04:22:44;16.80;99.90
20481;DHT22;10399;50.754;3.366;2023-08-06T04:25:11;16.90;99.90
20481;DHT22;10399;50.754;3.366;2023-08-06T04:27:38;16.90;99.90
20481;DHT22;10399;50.754;3.366;2023-08-06T04:30:08;16.80;99.90
20481;DHT22;10399;50.754;3.366;2023-08-06T04:32:38;16.80;99.90
20481;DHT22;10399;50.754;3.366;2023-08-06T04:35:07;16.80;99.90
20481;DHT22;10399;50.754;3.366;2023-08-06T04:37:34;16.70;99.90
20481;DHT22;10399;50.754;3.366;2023-08-06T04:40:01;16.60;99.90
20481;DHT22;10399;50.754;3.366;2023-08-06T04:42:28;16.60;99.90
20481;DHT22;10399;50.754;3.366;2023-08-06T04:44:55;16.60;99.90
20481;DHT22;10399;50.754;3.366;2023-08-06T04:47:23;16.60;99.90
20481;DHT22;10399;50.754;3.366;2023-08-06T04:49:50;16.60;99.90
20481;DHT22;10399;50.754;3.366;2023-08-06T04:52:19;16.70;99.90
20481;DHT22;10399;50.754;3.366;2023-08-06T04:54:46;16.70;99.90
20481;DHT22;10399;50.754;3.366;2023-08-06T04:57:13;16.70;99.90
20481;DHT22;10399;50.754;3.366;2023-08-06T04:59:41;16.70;99.90
20481;DHT22;10399;50.754;3.366;2023-08-06T05:02:08;16.60;99.90
20481;DHT22;10399;50.754;3.366;2023-08-06T05:04:35;16.60;99.90
20481;DHT22;10399;50.754;3.366;2023-08-06T05:07:04;16.60;99.90
20481;DHT22;10399;50.754;3.366;2023-08-06T05:09:32;16.50;99.90
20481;DHT22;10399;50.754;3.366;2023-08-06T05:12:04;16.70;99.90
20481;DHT22;10399;50.754;3.366;2023-08-06T05:14:31;16.60;99.90
20481;DHT22;10399;50.754;3.366;2023-08-06T05:16:58;16.70;99.90
20481;DHT22;10399;50.754;3.366;2023-08-06T05:19:26;16.60;99.90
20481;DHT22;10399;50.754;3.366;2023-08-06T05:21:53;16.60;99.90
20481;DHT22;10399;50.754;3.366;2023-08-06T05:24:21;16.60;99.90
20481;DHT22;10399;50.754;3.366;2023-08-06T05:26:49;16.70;99.90
20481;DHT22;10399;50.754;3.366;2023-08-06T05:29:16;16.60;99.90
20481;DHT22;10399;50.754;3.366;2023-08-06T05:31:43;16.60;99.90
20481;DHT22;10399;50.754;3.366;2023-08-06T05:34:11;16.60;99.90
20481;DHT22;10399;50.754;3.366;2023-08-06T05:36:38;16.60;99.90
20481;DHT22;10399;50.754;3.366;2023-08-06T05:39:05;16.70;99.90
20481;DHT22;10399;50.754;3.366;2023-08-06T05:41:32;16.70;99.90
20481;DHT22;10399;50.754;3.366;2023-08-06T05:44:00;16.70;99.90
20481;DHT22;10399;50.754;3.366;2023-08-06T05:46:30;16.70;99.90
20481;DHT22;10399;50.754;3.366;2023-08-06T05:48:57;16.60;99.90
20481;DHT22;10399;50.754;3.366;2023-08-06T05:51:26;16.70;99.90
20481;DHT22;10399;50.754;3.366;2023-08-06T05:53:53;16.70;99.90
20481;DHT22;10399;50.754;3.366;2023-08-06T05:56:21;16.70;99.90
20481;DHT22;10399;50.754;3.366;2023-08-06T05:58:48;16.80;99.90
20481;DHT22;10399;50.754;3.366;2023-08-06T06:01:18;16.90;99.90
20481;DHT22;10399;50.754;3.366;2023-08-06T06:03:46;16.80;99.90
20481;DHT22;10399;50.754;3.366;2023-08-06T06:06:14;16.60;99.90
20481;DHT22;10399;50.754;3.366;2023-08-06T06:08:43;16.60;99.90
20481;DHT22;10399;50.754;3.366;2023-08-06T06:11:10;16.60;99.90
20481;DHT22;10399;50.754;3.366;2023-08-06T06:13:38;16.60;99.90
20481;DHT22;10399;50.754;3.366;2023-08-06T06:16:05;16.60;99.90
20481;DHT22;10399;50.754;3.366;2023-08-06T06:18:32;16.50;99.90
20481;DHT22;10399;50.754;3.366;2023-08-06T06:21:00;16.50;99.90
20481;DHT22;10399;50.754;3.366;2023-08-06T06:23:27;16.40;99.90
20481;DHT22;10399;50.754;3.366;2023-08-06T06:25:55;16.40;99.90
20481;DHT22;10399;50.754;3.366;2023-08-06T06:28:22;16.40;99.90
20481;DHT22;10399;50.754;3.366;2023-08-06T06:30:51;16.40;99.90
20481;DHT22;10399;50.754;3.366;2023-08-06T06:33:18;16.50;99.90
20481;DHT22;10399;50.754;3.366;2023-08-06T06:35:46;16.60;99.90
20481;DHT22;10399;50.754;3.366;2023-08-06T06:38:14;16.50;99.90
20481;DHT22;10399;50.754;3.366;2023-08-06T06:40:41;16.60;99.90
20481;DHT22;10399;50.754;3.366;2023-08-06T06:43:09;16.50;99.90
20481;DHT22;10399;50.754;3.366;2023-08-06T06:45:36;16.60;99.90
20481;DHT22;10399;50.754;3.366;2023-08-06T06:48:03;16.60;99.90
20481;DHT22;10399;50.754;3.366;2023-08-06T06:50:31;16.70;99.90
20481;DHT22;10399;50.754;3.366;2023-08-06T06:52:58;16.70;99.90
20481;DHT22;10399;50.754;3.366;2023-08-06T06:55:26;16.70;99.90
20481;DHT22;10399;50.754;3.366;2023-08-06T06:57:54;16.80;99.90
20481;DHT22;10399;50.754;3.366;2023-08-06T07:00:21;16.80;99.90
20481;DHT22;10399;50.754;3.366;2023-08-06T07:02:49;16.80;99.90
20481;DHT22;10399;50.754;3.366;2023-08-06T07:05:16;16.90;99.90
20481;DHT22;10399;50.754;3.366;2023-08-06T07:07:43;17.00;99.90
20481;DHT22;10399;50.754;3.366;2023-08-06T07:10:11;17.10;99.90
20481;DHT22;10399;50.754;3.366;2023-08-06T07:12:39;17.30;99.90
20481;DHT22;10399;50.754;3.366;2023-08-06T07:15:07;17.20;99.90
20481;DHT22;10399;50.754;3.366;2023-08-06T07:17:34;17.20;99.90
20481;DHT22;10399;50.754;3.366;2023-08-06T07:20:02;17.10;99.90
20481;DHT22;10399;50.754;3.366;2023-08-06T07:22:30;17.10;99.90
20481;DHT22;10399;50.754;3.366;2023-08-06T07:24:57;17.30;99.90
20481;DHT22;10399;50.754;3.366;2023-08-06T07:27:25;17.40;99.90
20481;DHT22;10399;50.754;3.366;2023-08-06T07:29:53;17.50;99.90
20481;DHT22;10399;50.754;3.366;2023-08-06T07:32:20;17.40;99.90
20481;DHT22;10399;50.754;3.366;2023-08-06T07:34:49;17.50;99.90
20481;DHT22;10399;50.754;3.366;2023-08-06T07:37:17;17.70;99.90
20481;DHT22;10399;50.754;3.366;2023-08-06T07:39:44;17.60;99.90
20481;DHT22;10399;50.754;3.366;2023-08-06T07:42:12;17.50;99.90
20481;DHT22;10399;50.754;3.366;2023-08-06T07:44:39;17.60;99.90
20481;DHT22;10399;50.754;3.366;2023-08-06T07:47:07;17.50;99.90
20481;DHT22;10399;50.754;3.366;2023-08-06T07:49:34;17.40;99.90
20481;DHT22;10399;50.754;3.366;2023-08-06T07:52:03;17.60;99.90
20481;DHT22;10399;50.754;3.366;2023-08-06T07:54:31;17.60;99.90
20481;DHT22;10399;50.754;3.366;2023-08-06T07:56:58;17.50;99.90
20481;DHT22;10399;50.754;3.366;2023-08-06T07:59:26;17.50;99.90
20481;DHT22;10399;50.754;3.366;2023-08-06T08:01:53;17.50;99.90
20481;DHT22;10399;50.754;3.366;2023-08-06T08:04:21;17.50;99.90
20481;DHT22;10399;50.754;3.366;2023-08-06T08:06:50;17.60;99.90
20481;DHT22;10399;50.754;3.366;2023-08-06T08:09:17;17.70;99.90
20481;DHT22;10399;50.754;3.366;2023-08-06T08:11:46;17.70;99.90
20481;DHT22;10399;50.754;3.366;2023-08-06T08:14:14;17.70;99.90
20481;DHT22;10399;50.754;3.366;2023-08-06T08:16:41;17.70;99.90
20481;DHT22;10399;50.754;3.366;2023-08-06T08:19:09;17.70;99.90
20481;DHT22;10399;50.754;3.366;2023-08-06T08:21:36;17.80;99.90
20481;DHT22;10399;50.754;3.366;2023-08-06T08:24:05;17.70;99.90
20481;DHT22;10399;50.754;3.366;2023-08-06T08:26:32;17.90;99.90
20481;DHT22;10399;50.754;3.366;2023-08-06T08:28:59;18.00;99.90
20481;DHT22;10399;50.754;3.366;2023-08-06T08:31:27;17.80;99.90
20481;DHT22;10399;50.754;3.366;2023-08-06T08:33:55;17.80;99.90
20481;DHT22;10399;50.754;3.366;2023-08-06T08:36:25;18.10;99.90
20481;DHT22;10399;50.754;3.366;2023-08-06T08:38:53;18.20;99.90
20481;DHT22;10399;50.754;3.366;2023-08-06T08:41:21;18.30;99.90
20481;DHT22;10399;50.754;3.366;2023-08-06T08:43:50;18.30;99.90
20481;DHT22;10399;50.754;3.366;2023-08-06T08:46:21;18.20;99.90
20481;DHT22;10399;50.754;3.366;2023-08-06T08:48:49;18.20;99.90
20481;DHT22;10399;50.754;3.366;2023-08-06T08:51:17;18.10;99.90
20481;DHT22;10399;50.754;3.366;2023-08-06T08:53:45;18.20;99.90
20481;DHT22;10399;50.754;3.366;2023-08-06T08:56:13;18.30;99.90
20481;DHT22;10399;50.754;3.366;2023-08-06T08:58:41;18.40;99.90
20481;DHT22;10399;50.754;3.366;2023-08-06T09:01:09;18.00;99.90
20481;DHT22;10399;50.754;3.366;2023-08-06T09:03:37;17.80;99.90
20481;DHT22;10399;50.754;3.366;2023-08-06T09:06:06;17.80;99.90
20481;DHT22;10399;50.754;3.366;2023-08-06T09:08:43;17.80;99.90
20481;DHT22;10399;50.754;3.366;2023-08-06T09:11:13;17.70;99.90
20481;DHT22;10399;50.754;3.366;2023-08-06T09:13:42;17.70;99.90
20481;DHT22;10399;50.754;3.366;2023-08-06T09:16:09;17.50;99.90
20481;DHT22;10399;50.754;3.366;2023-08-06T09:18:39;17.50;99.90
20481;DHT22;10399;50.754;3.366;2023-08-06T09:21:06;17.40;99.90
20481;DHT22;10399;50.754;3.366;2023-08-06T09:23:40;17.50;99.90
20481;DHT22;10399;50.754;3.366;2023-08-06T09:26:11;17.40;99.90
20481;DHT22;10399;50.754;3.366;2023-08-06T09:28:42;17.50;99.90
20481;DHT22;10399;50.754;3.366;2023-08-06T09:31:10;17.40;99.90
20481;DHT22;10399;50.754;3.366;2023-08-06T09:33:37;17.30;99.90
20481;DHT22;10399;50.754;3.366;2023-08-06T09:36:12;17.20;99.90
20481;DHT22;10399;50.754;3.366;2023-08-06T09:38:40;17.30;99.90
20481;DHT22;10399;50.754;3.366;2023-08-06T09:41:09;17.30;99.90
20481;DHT22;10399;50.754;3.366;2023-08-06T09:43:43;17.20;99.90
20481;DHT22;10399;50.754;3.366;2023-08-06T09:46:14;17.20;99.90
20481;DHT22;10399;50.754;3.366;2023-08-06T09:48:46;17.30;99.90
20481;DHT22;10399;50.754;3.366;2023-08-06T09:51:15;17.60;99.90
20481;DHT22;10399;50.754;3.366;2023-08-06T09:53:42;17.70;99.90
20481;DHT22;10399;50.754;3.366;2023-08-06T09:56:13;17.60;99.90
20481;DHT22;10399;50.754;3.366;2023-08-06T09:58:42;17.70;99.90
20481;DHT22;10399;50.754;3.366;2023-08-06T10:01:10;18.20;99.90
20481;DHT22;10399;50.754;3.366;2023-08-06T10:03:39;18.70;99.90
20481;DHT22;10399;50.754;3.366;2023-08-06T10:06:07;19.00;99.90
20481;DHT22;10399;50.754;3.366;2023-08-06T10:08:35;19.00;99.90
20481;DHT22;10399;50.754;3.366;2023-08-06T10:11:03;18.70;99.90
20481;DHT22;10399;50.754;3.366;2023-08-06T10:13:34;18.50;99.90
20481;DHT22;10399;50.754;3.366;2023-08-06T10:16:02;18.50;99.90
20481;DHT22;10399;50.754;3.366;2023-08-06T10:18:36;18.60;99.90
20481;DHT22;10399;50.754;3.366;2023-08-06T10:21:09;18.60;99.90
20481;DHT22;10399;50.754;3.366;2023-08-06T10:23:40;18.70;99.90
20481;DHT22;10399;50.754;3.366;2023-08-06T10:26:08;18.80;99.90
20481;DHT22;10399;50.754;3.366;2023-08-06T10:28:39;18.90;99.90
20481;DHT22;10399;50.754;3.366;2023-08-06T10:31:06;18.60;99.90
20481;DHT22;10399;50.754;3.366;2023-08-06T10:33:44;18.20;99.90
20481;DHT22;10399;50.754;3.366;2023-08-06T10:36:12;18.30;99.90
20481;DHT22;10399;50.754;3.366;2023-08-06T10:38:50;18.30;99.90
20481;DHT22;10399;50.754;3.366;2023-08-06T10:41:23;18.50;99.90
20481;DHT22;10399;50.754;3.366;2023-08-06T10:44:05;18.20;99.90
20481;DHT22;10399;50.754;3.366;2023-08-06T10:46:35;18.20;99.90
20481;DHT22;10399;50.754;3.366;2023-08-06T10:49:04;18.20;99.90
20481;DHT22;10399;50.754;3.366;2023-08-06T10:51:31;18.40;99.90
20481;DHT22;10399;50.754;3.366;2023-08-06T10:53:59;18.60;99.90
20481;DHT22;10399;50.754;3.366;2023-08-06T10:56:27;18.70;99.90
20481;DHT22;10399;50.754;3.366;2023-08-06T10:58:55;18.80;99.90
20481;DHT22;10399;50.754;3.366;2023-08-06T11:01:28;18.80;99.90
20481;DHT22;10399;50.754;3.366;2023-08-06T11:04:02;18.80;99.90
20481;DHT22;10399;50.754;3.366;2023-08-06T11:06:29;18.70;99.90
20481;DHT22;10399;50.754;3.366;2023-08-06T11:08:57;18.60;99.90
20481;DHT22;10399;50.754;3.366;2023-08-06T11:11:24;18.60;99.90
20481;DHT22;10399;50.754;3.366;2023-08-06T11:13:51;18.60;99.90
20481;DHT22;10399;50.754;3.366;2023-08-06T11:16:23;18.60;99.90
20481;DHT22;10399;50.754;3.366;2023-08-06T11:18:53;18.70;99.90
20481;DHT22;10399;50.754;3.366;2023-08-06T11:21:22;18.70;99.90
20481;DHT22;10399;50.754;3.366;2023-08-06T11:23:52;18.50;99.90
20481;DHT22;10399;50.754;3.366;2023-08-06T11:26:21;18.40;99.90
20481;DHT22;10399;50.754;3.366;2023-08-06T11:28:50;18.40;99.90
20481;DHT22;10399;50.754;3.366;2023-08-06T11:31:23;18.20;99.90
20481;DHT22;10399;50.754;3.366;2023-08-06T11:33:52;18.40;99.90
20481;DHT22;10399;50.754;3.366;2023-08-06T11:36:30;18.50;99.90
20481;DHT22;10399;50.754;3.366;2023-08-06T11:38:59;18.80;99.90
20481;DHT22;10399;50.754;3.366;2023-08-06T11:41:30;19.10;99.90
20481;DHT22;10399;50.754;3.366;2023-08-06T11:43:58;19.30;99.90
20481;DHT22;10399;50.754;3.366;2023-08-06T11:46:26;19.40;99.90
20481;DHT22;10399;50.754;3.366;2023-08-06T11:48:58;19.40;99.90
20481;DHT22;10399;50.754;3.366;2023-08-06T11:51:26;19.30;99.90
20481;DHT22;10399;50.754;3.366;2023-08-06T11:53:57;19.50;99.90
20481;DHT22;10399;50.754;3.366;2023-08-06T11:56:26;19.90;99.90
20481;DHT22;10399;50.754;3.366;2023-08-06T11:58:54;20.10;99.90
20481;DHT22;10399;50.754;3.366;2023-08-06T12:01:22;20.30;99.90
20481;DHT22;10399;50.754;3.366;2023-08-06T12:03:49;20.70;99.90
20481;DHT22;10399;50.754;3.366;2023-08-06T12:06:17;21.20;99.90
20481;DHT22;10399;50.754;3.366;2023-08-06T12:08:44;21.40;99.90
20481;DHT22;10399;50.754;3.366;2023-08-06T12:11:12;21.60;99.90
20481;DHT22;10399;50.754;3.366;2023-08-06T12:13:39;21.30;99.90
20481;DHT22;10399;50.754;3.366;2023-08-06T12:16:06;20.80;99.90
20481;DHT22;10399;50.754;3.366;2023-08-06T12:18:33;20.50;99.90
20481;DHT22;10399;50.754;3.366;2023-08-06T12:21:01;20.40;99.90
20481;DHT22;10399;50.754;3.366;2023-08-06T12:23:28;20.30;99.90
20481;DHT22;10399;50.754;3.366;2023-08-06T12:25:55;20.30;99.90
20481;DHT22;10399;50.754;3.366;2023-08-06T12:28:23;20.40;99.90
20481;DHT22;10399;50.754;3.366;2023-08-06T12:30:50;20.40;99.90
20481;DHT22;10399;50.754;3.366;2023-08-06T12:33:19;20.30;99.90
20481;DHT22;10399;50.754;3.366;2023-08-06T12:35:46;19.80;99.90
20481;DHT22;10399;50.754;3.366;2023-08-06T12:38:13;19.70;99.90
20481;DHT22;10399;50.754;3.366;2023-08-06T12:40:41;19.50;99.90
20481;DHT22;10399;50.754;3.366;2023-08-06T12:43:09;19.60;99.90
20481;DHT22;10399;50.754;3.366;2023-08-06T12:45:37;19.40;99.90
20481;DHT22;10399;50.754;3.366;2023-08-06T12:48:05;19.30;99.90
20481;DHT22;10399;50.754;3.366;2023-08-06T12:50:32;19.00;99.90
20481;DHT22;10399;50.754;3.366;2023-08-06T12:53:00;18.80;99.90
20481;DHT22;10399;50.754;3.366;2023-08-06T12:55:27;18.50;99.90
20481;DHT22;10399;50.754;3.366;2023-08-06T12:57:58;18.40;99.90
20481;DHT22;10399;50.754;3.366;2023-08-06T13:00:26;18.30;99.90
20481;DHT22;10399;50.754;3.366;2023-08-06T13:02:54;18.30;99.90
20481;DHT22;10399;50.754;3.366;2023-08-06T13:05:22;18.20;99.90
20481;DHT22;10399;50.754;3.366;2023-08-06T13:07:50;18.20;99.90
20481;DHT22;10399;50.754;3.366;2023-08-06T13:10:20;18.40;99.90
20481;DHT22;10399;50.754;3.366;2023-08-06T13:12:51;18.70;99.90
20481;DHT22;10399;50.754;3.366;2023-08-06T13:15:18;18.70;99.90
20481;DHT22;10399;50.754;3.366;2023-08-06T13:17:48;18.60;99.90
20481;DHT22;10399;50.754;3.366;2023-08-06T13:20:15;18.40;99.90
20481;DHT22;10399;50.754;3.366;2023-08-06T13:22:46;18.40;99.90
20481;DHT22;10399;50.754;3.366;2023-08-06T13:25:13;18.40;99.90
20481;DHT22;10399;50.754;3.366;2023-08-06T13:27:43;18.50;99.90
20481;DHT22;10399;50.754;3.366;2023-08-06T13:30:12;18.70;99.90
20481;DHT22;10399;50.754;3.366;2023-08-06T13:32:42;18.80;99.90
20481;DHT22;10399;50.754;3.366;2023-08-06T13:35:09;19.00;99.90
20481;DHT22;10399;50.754;3.366;2023-08-06T13:37:36;19.10;99.90
20481;DHT22;10399;50.754;3.366;2023-08-06T13:40:04;19.40;99.90
20481;DHT22;10399;50.754;3.366;2023-08-06T13:42:32;19.60;99.90
20481;DHT22;10399;50.754;3.366;2023-08-06T13:44:59;19.70;99.90
20481;DHT22;10399;50.754;3.366;2023-08-06T13:47:30;19.70;99.90
20481;DHT22;10399;50.754;3.366;2023-08-06T13:49:58;19.90;99.90
20481;DHT22;10399;50.754;3.366;2023-08-06T13:52:26;19.90;99.90
20481;DHT22;10399;50.754;3.366;2023-08-06T13:54:54;20.10;99.90
20481;DHT22;10399;50.754;3.366;2023-08-06T13:57:21;20.10;99.90
20481;DHT22;10399;50.754;3.366;2023-08-06T13:59:48;19.90;99.90
20481;DHT22;10399;50.754;3.366;2023-08-06T14:02:16;20.00;99.90
20481;DHT22;10399;50.754;3.366;2023-08-06T14:04:43;20.10;99.90
20481;DHT22;10399;50.754;3.366;2023-08-06T14:07:10;20.20;99.90
20481;DHT22;10399;50.754;3.366;2023-08-06T14:09:37;20.30;99.90
20481;DHT22;10399;50.754;3.366;2023-08-06T14:12:09;20.30;99.90
20481;DHT22;10399;50.754;3.366;2023-08-06T14:14:36;20.50;99.90
20481;DHT22;10399;50.754;3.366;2023-08-06T14:17:05;20.60;99.90
20481;DHT22;10399;50.754;3.366;2023-08-06T14:19:32;20.70;99.90
20481;DHT22;10399;50.754;3.366;2023-08-06T14:22:01;20.80;99.90
20481;DHT22;10399;50.754;3.366;2023-08-06T14:24:29;20.70;99.90
20481;DHT22;10399;50.754;3.366;2023-08-06T14:26:57;20.70;99.90
20481;DHT22;10399;50.754;3.366;2023-08-06T14:29:25;20.70;99.90
20481;DHT22;10399;50.754;3.366;2023-08-06T14:31:53;20.50;99.90
20481;DHT22;10399;50.754;3.366;2023-08-06T14:34:21;20.10;99.90
20481;DHT22;10399;50.754;3.366;2023-08-06T14:36:49;20.30;99.90
20481;DHT22;10399;50.754;3.366;2023-08-06T14:39:17;20.10;99.90
20481;DHT22;10399;50.754;3.366;2023-08-06T14:41:44;19.90;99.90
20481;DHT22;10399;50.754;3.366;2023-08-06T14:44:11;20.10;99.90
20481;DHT22;10399;50.754;3.366;2023-08-06T14:46:39;20.10;99.90
20481;DHT22;10399;50.754;3.366;2023-08-06T14:49:06;19.90;99.90
20481;DHT22;10399;50.754;3.366;2023-08-06T14:51:33;19.90;99.90
20481;DHT22;10399;50.754;3.366;2023-08-06T14:54:02;19.70;99.90
20481;DHT22;10399;50.754;3.366;2023-08-06T14:56:30;19.80;99.90
20481;DHT22;10399;50.754;3.366;2023-08-06T14:58:58;19.70;99.90
20481;DHT22;10399;50.754;3.366;2023-08-06T15:01:26;19.70;99.90
20481;DHT22;10399;50.754;3.366;2023-08-06T15:03:54;20.00;99.90
20481;DHT22;10399;50.754;3.366;2023-08-06T15:06:22;20.10;99.90
20481;DHT22;10399;50.754;3.366;2023-08-06T15:08:49;20.60;99.90
20481;DHT22;10399;50.754;3.366;2023-08-06T15:11:17;21.10;99.90
20481;DHT22;10399;50.754;3.366;2023-08-06T15:13:44;21.50;99.90
20481;DHT22;10399;50.754;3.366;2023-08-06T15:16:11;21.70;99.90
20481;DHT22;10399;50.754;3.366;2023-08-06T15:18:39;21.90;99.90
20481;DHT22;10399;50.754;3.366;2023-08-06T15:21:07;22.20;99.90
20481;DHT22;10399;50.754;3.366;2023-08-06T15:23:34;22.40;99.90
20481;DHT22;10399;50.754;3.366;2023-08-06T15:26:02;22.60;99.90
20481;DHT22;10399;50.754;3.366;2023-08-06T15:28:29;23.00;99.90
20481;DHT22;10399;50.754;3.366;2023-08-06T15:30:56;23.20;99.90
20481;DHT22;10399;50.754;3.366;2023-08-06T15:33:24;23.40;99.90
20481;DHT22;10399;50.754;3.366;2023-08-06T15:35:51;22.90;99.90
20481;DHT22;10399;50.754;3.366;2023-08-06T15:38:19;23.00;99.90
20481;DHT22;10399;50.754;3.366;2023-08-06T15:40:47;22.80;99.90